Time;durP1;ratioP1;P1;durP2;ratioP2;P2;SDS_P1;SDS_P2;PMS_P1;PMS_P2;Temp;Humidity;BMP_temperature;BMP_pressure;BME280_temperature;BME280_humidity;BME280_pressure;Samples;Min_cycle;Max_cycle;Signal;HPM_P1;HPM_P2
2022/07/17 00:02:52;;;;;;;4.47;1.02;;;;;;;19.55;38.80;101078.94;10414775;28;20321;-53
2022/07/17 00:07:54;;;;;;;1.45;0.60;;;;;;;19.51;38.74;101079.44;10420849;28;20146;-54
2022/07/17 00:12:55;;;;;;;2.65;0.75;;;;;;;19.50;38.72;101084.00;10422780;28;20073;-56
2022/07/17 00:17:57;;;;;;;4.18;0.85;;;;;;;19.44;38.95;101090.03;10418636;28;20488;-53
2022/07/17 00:22:58;;;;;;;2.78;0.82;;;;;;;19.40;38.68;101069.78;10417307;28;20638;-56
2022/07/17 00:28:00;;;;;;;4.55;1.30;;;;;;;19.35;39.12;101070.25;10421928;28;20549;-55
2022/07/17 00:33:01;;;;;;;3.53;0.60;;;;;;;19.31;39.29;101068.88;10427789;28;20114;-53
2022/07/17 00:38:03;;;;;;;4.10;0.70;;;;;;;19.29;39.26;101068.22;10426439;28;20235;-54
2022/07/17 00:43:05;;;;;;;2.78;0.70;;;;;;;19.30;39.31;101072.59;10429629;28;20127;-53
2022/07/17 00:48:10;;;;;;;2.40;0.82;;;;;;;19.28;39.16;101076.47;10428494;28;20074;-56
2022/07/17 00:53:12;;;;;;;3.20;1.17;;;;;;;19.21;39.69;101069.00;10424084;28;20072;-55
2022/07/17 00:58:20;;;;;;;3.88;0.55;;;;;;;19.17;39.52;101073.03;10425163;28;20704;-56
2022/07/17 01:03:26;;;;;;;3.35;0.82;;;;;;;19.15;39.58;101071.50;10424005;28;20045;-56
2022/07/17 01:08:28;;;;;;;2.38;0.50;;;;;;;19.04;40.16;101067.22;10425527;28;20137;-56
2022/07/17 01:13:30;;;;;;;2.20;0.40;;;;;;;19.00;40.41;101073.94;10429699;28;20127;-56
2022/07/17 01:18:32;;;;;;;1.23;0.50;;;;;;;19.02;40.43;101077.31;10405613;28;20057;-55
2022/07/17 01:23:34;;;;;;;2.83;0.50;;;;;;;19.00;40.89;101074.78;10425973;28;20125;-56
2022/07/17 01:28:35;;;;;;;3.08;0.50;;;;;;;18.95;41.28;101074.41;10420081;28;20123;-55
2022/07/17 01:33:37;;;;;;;1.52;0.47;;;;;;;18.92;40.46;101072.03;10429170;28;20836;-55
2022/07/17 01:38:38;;;;;;;2.70;0.68;;;;;;;18.92;40.41;101072.03;10420332;28;20165;-56
2022/07/17 01:43:40;;;;;;;4.03;1.08;;;;;;;18.91;40.51;101078.41;10416677;28;20505;-55
2022/07/17 01:48:41;;;;;;;2.05;0.60;;;;;;;18.88;40.17;101081.44;10421697;28;20678;-56
2022/07/17 01:53:43;;;;;;;3.30;0.88;;;;;;;18.83;40.95;101071.09;10420313;28;20586;-52
2022/07/17 01:58:45;;;;;;;2.08;1.02;;;;;;;18.73;40.76;101076.59;10423627;28;20214;-54
2022/07/17 02:03:46;;;;;;;2.35;0.50;;;;;;;18.72;40.92;101077.59;10422076;28;20049;-54
2022/07/17 02:08:50;;;;;;;2.83;0.82;;;;;;;18.73;41.42;101076.59;10418717;28;20076;-54
2022/07/17 02:13:52;;;;;;;3.50;0.50;;;;;;;18.70;41.01;101087.66;10421713;28;20076;-52
2022/07/17 02:18:53;;;;;;;4.50;0.70;;;;;;;18.66;41.23;101089.00;10420830;28;20052;-57
2022/07/17 02:23:54;;;;;;;5.03;2.05;;;;;;;18.65;40.96;101083.78;10424915;28;20238;-53
2022/07/17 02:28:56;;;;;;;2.90;0.90;;;;;;;18.61;41.40;101077.00;10427462;28;20123;-54
2022/07/17 02:33:58;;;;;;;1.63;0.63;;;;;;;18.57;41.40;101079.16;10423415;28;20484;-54
2022/07/17 02:39:00;;;;;;;2.45;0.50;;;;;;;18.56;41.21;101088.25;10413758;28;20528;-52
2022/07/17 02:44:02;;;;;;;4.50;0.80;;;;;;;18.55;41.38;101092.81;10414986;28;20123;-52
2022/07/17 02:49:03;;;;;;;4.32;0.63;;;;;;;18.51;41.44;101095.94;10422923;28;20190;-54
2022/07/17 02:54:05;;;;;;;3.40;0.93;;;;;;;18.49;41.84;101093.38;10420754;28;20135;-53
2022/07/17 02:59:06;;;;;;;3.13;0.63;;;;;;;18.46;41.54;101090.19;10421716;28;20166;-54
2022/07/17 03:04:07;;;;;;;3.30;0.50;;;;;;;18.44;41.52;101093.03;10423371;28;20672;-54
2022/07/17 03:09:09;;;;;;;1.33;0.45;;;;;;;18.40;41.73;101088.94;10425968;28;20322;-53
2022/07/17 03:14:10;;;;;;;2.38;0.85;;;;;;;18.38;41.54;101093.66;10407008;28;20039;-54
2022/07/17 03:19:12;;;;;;;3.03;0.90;;;;;;;18.34;41.97;101095.78;10418972;28;20056;-52
2022/07/17 03:24:14;;;;;;;2.13;0.70;;;;;;;18.24;42.13;101092.34;10408124;28;20052;-52
2022/07/17 03:29:17;;;;;;;2.85;0.57;;;;;;;18.18;42.23;101096.50;10421588;28;20211;-53
2022/07/17 03:34:18;;;;;;;2.50;0.90;;;;;;;18.14;42.21;101096.94;10420382;28;20496;-54
2022/07/17 03:39:20;;;;;;;2.03;0.82;;;;;;;18.12;42.28;101089.03;10420578;28;20063;-54
2022/07/17 03:44:22;;;;;;;2.55;1.20;;;;;;;18.12;42.48;101096.22;10417232;28;20056;-53
2022/07/17 03:49:24;;;;;;;4.20;0.50;;;;;;;18.09;42.50;101089.31;10428610;28;20102;-54
2022/07/17 03:54:25;;;;;;;2.20;0.57;;;;;;;18.08;42.74;101098.41;10428576;28;20084;-52
2022/07/17 03:59:27;;;;;;;2.22;0.35;;;;;;;18.01;43.03;101087.41;10432258;28;20110;-54
2022/07/17 04:04:29;;;;;;;1.92;0.50;;;;;;;18.06;42.80;101092.31;10430789;28;20118;-63
2022/07/17 04:09:30;;;;;;;3.38;1.08;;;;;;;18.04;42.90;101090.78;10438830;28;20274;-62
2022/07/17 04:14:31;;;;;;;2.40;0.57;;;;;;;17.96;43.21;101102.31;10437547;28;20154;-62
2022/07/17 04:19:33;;;;;;;3.15;0.88;;;;;;;17.89;43.61;101107.44;10437081;22;20137;-64
2022/07/17 04:24:34;;;;;;;1.70;0.50;;;;;;;17.87;43.90;101119.34;10433265;28;20090;-64
2022/07/17 04:29:36;;;;;;;4.20;1.05;;;;;;;17.74;44.37;101111.59;10429093;28;20133;-64
2022/07/17 04:34:37;;;;;;;3.10;1.40;;;;;;;17.67;44.57;101112.22;10424499;28;20133;-64
2022/07/17 04:39:39;;;;;;;5.50;0.75;;;;;;;17.61;44.82;101123.56;10422405;28;20390;-64
2022/07/17 04:44:40;;;;;;;2.70;0.60;;;;;;;17.61;44.92;101128.97;10418736;28;20063;-65
2022/07/17 04:49:41;;;;;;;1.83;0.70;;;;;;;17.59;45.41;101130.94;10422127;28;20132;-63
2022/07/17 04:54:43;;;;;;;6.60;1.25;;;;;;;17.63;45.37;101132.34;10426632;28;20132;-63
2022/07/17 04:59:44;;;;;;;2.05;0.40;;;;;;;17.60;45.37;101135.31;10437072;28;20581;-63
2022/07/17 05:04:47;;;;;;;2.42;0.90;;;;;;;17.62;45.20;101129.78;10427994;28;20055;-62
2022/07/17 05:09:48;;;;;;;1.83;0.73;;;;;;;17.63;45.77;101135.03;10424978;28;20128;-64
2022/07/17 05:14:49;;;;;;;2.47;0.65;;;;;;;17.69;45.22;101132.75;10427111;28;20156;-63
2022/07/17 05:19:51;;;;;;;2.72;0.50;;;;;;;17.69;45.41;101130.06;10431109;28;20713;-63
2022/07/17 05:24:52;;;;;;;1.58;0.68;;;;;;;17.75;45.37;101141.06;10411277;28;20242;-63
2022/07/17 05:29:54;;;;;;;3.42;0.65;;;;;;;17.80;45.98;101154.09;10390001;28;20040;-63
2022/07/17 05:34:56;;;;;;;4.97;1.20;;;;;;;17.85;45.51;101158.03;10394239;28;21099;-63
2022/07/17 05:39:57;;;;;;;5.30;1.38;;;;;;;17.90;45.51;101159.47;10396313;28;20052;-64
2022/07/17 05:44:59;;;;;;;3.00;0.80;;;;;;;17.97;44.66;101169.50;10402155;28;20064;-64
2022/07/17 05:50:01;;;;;;;2.00;0.98;;;;;;;17.89;45.65;101168.50;10419011;28;20055;-63
2022/07/17 05:55:02;;;;;;;2.78;0.75;;;;;;;18.04;45.89;101177.81;10406975;28;20059;-63
2022/07/17 06:00:05;;;;;;;1.75;0.50;;;;;;;18.14;45.98;101175.09;10399314;28;20045;-63
2022/07/17 06:05:07;;;;;;;2.22;0.52;;;;;;;18.24;45.84;101170.50;10396112;28;21502;-62
2022/07/17 06:10:09;;;;;;;2.40;0.60;;;;;;;18.34;45.26;101182.03;10397235;28;20198;-63
2022/07/17 06:15:11;;;;;;;4.05;1.05;;;;;;;18.41;45.88;101176.06;10393206;28;20083;-62
2022/07/17 06:20:14;;;;;;;2.45;0.70;;;;;;;18.32;44.94;101189.44;10394297;28;20222;-63
2022/07/17 06:25:15;;;;;;;1.83;0.60;;;;;;;18.38;45.34;101186.13;10396550;28;20245;-63
2022/07/17 06:30:17;;;;;;;2.85;0.68;;;;;;;18.55;45.62;101194.38;10392967;28;20137;-63
2022/07/17 06:35:18;;;;;;;2.25;0.50;;;;;;;18.59;44.16;101176.91;10401080;28;20068;-63
2022/07/17 06:40:20;;;;;;;2.55;0.57;;;;;;;18.79;45.24;101182.16;10401137;28;20048;-64
2022/07/17 06:45:22;;;;;;;2.28;0.70;;;;;;;18.93;44.04;101184.34;10405764;28;20052;-63
2022/07/17 06:50:23;;;;;;;3.28;0.77;;;;;;;19.11;44.08;101180.75;10405853;28;20769;-63
2022/07/17 06:55:24;;;;;;;2.25;0.35;;;;;;;19.36;43.03;101174.50;10405361;28;20052;-63
2022/07/17 07:00:26;;;;;;;4.22;0.77;;;;;;;19.48;42.73;101176.97;10386484;28;20048;-63
2022/07/17 07:05:27;;;;;;;3.05;0.50;;;;;;;19.63;42.49;101178.06;10402458;28;20064;-63
2022/07/17 07:10:29;;;;;;;1.33;0.40;;;;;;;19.86;42.32;101175.69;10396140;28;20052;-63
2022/07/17 07:15:30;;;;;;;1.77;0.65;;;;;;;20.11;41.56;101179.31;10382917;28;20102;-62
2022/07/17 07:20:32;;;;;;;2.40;0.50;;;;;;;20.31;40.69;101192.53;10389636;28;20067;-63
2022/07/17 07:25:34;;;;;;;3.22;0.57;;;;;;;20.40;40.50;101194.28;10393799;28;20062;-62
2022/07/17 07:30:55;;;;;;;1.75;0.43;;;;;;;20.60;39.92;101188.56;10393002;28;20056;-62
2022/07/17 07:35:57;;;;;;;2.15;0.70;;;;;;;20.88;39.45;101185.56;10401476;28;20079;-63
2022/07/17 07:40:58;;;;;;;1.48;0.30;;;;;;;20.99;39.10;101182.56;10409855;28;20052;-63
2022/07/17 07:46:00;;;;;;;2.13;0.52;;;;;;;21.18;39.23;101181.34;10403714;28;20801;-63
2022/07/17 07:51:01;;;;;;;2.75;0.40;;;;;;;21.35;38.68;101172.19;10400508;28;20055;-63
2022/07/17 07:56:03;;;;;;;1.88;0.55;;;;;;;21.46;38.21;101173.69;10401328;28;20153;-62
2022/07/17 08:01:05;;;;;;;2.55;0.60;;;;;;;21.61;37.78;101165.72;10401956;28;20692;-62
2022/07/17 08:06:06;;;;;;;2.05;0.30;;;;;;;21.59;37.92;101164.19;10402921;28;20203;-62
2022/07/17 08:11:08;;;;;;;3.05;0.77;;;;;;;21.81;37.42;101157.19;10400415;28;20134;-63
2022/07/17 08:16:10;;;;;;;1.77;0.70;;;;;;;21.97;37.45;101142.72;10397110;28;20151;-62
2022/07/17 08:21:11;;;;;;;2.67;0.43;;;;;;;21.89;36.86;101149.03;10400032;28;20445;-62
2022/07/17 08:26:13;;;;;;;4.22;0.32;;;;;;;22.30;37.24;101154.22;10400798;28;20920;-62
2022/07/17 08:31:14;;;;;;;2.80;1.15;;;;;;;22.64;35.85;101144.00;10394258;28;20063;-63
2022/07/17 08:36:16;;;;;;;1.75;0.40;;;;;;;22.67;35.18;101132.78;10395580;28;20052;-64
2022/07/17 08:41:21;;;;;;;2.70;0.40;;;;;;;22.84;34.98;101137.06;10401479;28;20158;-64
2022/07/17 08:46:25;;;;;;;0.90;0.20;;;;;;;23.15;34.60;101125.28;10407680;28;20052;-63
2022/07/17 08:51:28;;;;;;;4.30;0.50;;;;;;;23.43;32.43;101130.06;10409619;28;20056;-62
2022/07/17 08:56:30;;;;;;;3.28;0.20;;;;;;;23.47;32.99;101128.66;10409498;28;20075;-63
2022/07/17 09:01:31;;;;;;;3.20;1.60;;;;;;;23.61;32.17;101127.81;10414179;28;20044;-62
2022/07/17 09:06:33;;;;;;;2.00;0.60;;;;;;;23.81;32.68;101130.81;10408097;28;20167;-62
2022/07/17 09:11:46;;;;;;;2.05;0.30;;;;;;;23.54;32.51;101129.63;10406808;28;20065;-62
2022/07/17 09:16:55;;;;;;;4.10;0.60;;;;;;;24.03;31.03;101128.16;10404700;28;20070;-64
2022/07/17 09:22:06;;;;;;;2.38;0.38;;;;;;;24.12;30.81;101128.91;10403638;28;20053;-63
2022/07/17 09:27:09;;;;;;;1.90;0.73;;;;;;;24.16;31.67;101130.19;10400431;28;20695;-65
2022/07/17 09:32:10;;;;;;;2.40;0.97;;;;;;;24.37;30.93;101120.38;10398554;28;20641;-65
2022/07/17 09:37:12;;;;;;;2.25;0.30;;;;;;;24.49;31.49;101107.94;10404322;28;20059;-64
2022/07/17 09:42:31;;;;;;;1.80;0.70;;;;;;;24.98;30.25;101123.47;10404506;28;20118;-64
2022/07/17 09:47:34;;;;;;;2.65;1.02;;;;;;;25.14;29.15;101102.41;10402831;28;20183;-65
2022/07/17 09:52:38;;;;;;;1.88;0.60;;;;;;;25.53;28.67;101111.91;10406780;28;20109;-65
2022/07/17 09:57:40;;;;;;;4.97;2.88;;;;;;;25.97;29.85;101110.59;10414068;28;20048;-65
2022/07/17 10:02:43;;;;;;;2.72;0.70;;;;;;;26.31;27.45;101108.84;10403083;28;20049;-64
2022/07/17 10:07:46;;;;;;;3.75;0.95;;;;;;;26.55;28.70;101114.78;10398557;28;20147;-64
2022/07/17 10:12:50;;;;;;;1.23;0.30;;;;;;;26.35;27.46;101110.13;10395293;28;20230;-64
2022/07/17 10:18:02;;;;;;;4.07;0.40;;;;;;;26.65;26.18;101115.19;10395639;28;20105;-64
2022/07/17 10:23:16;;;;;;;2.63;0.80;;;;;;;26.97;26.09;101108.06;10393988;28;20063;-64
2022/07/17 10:28:18;;;;;;;1.63;0.52;;;;;;;27.46;24.77;101103.19;10393897;28;20488;-64
2022/07/17 10:33:20;;;;;;;2.77;0.50;;;;;;;27.42;25.54;101107.38;10393202;28;20037;-65
2022/07/17 10:38:22;;;;;;;2.50;0.40;;;;;;;27.63;25.00;101117.19;10395954;28;20299;-63
2022/07/17 10:43:23;;;;;;;2.57;0.43;;;;;;;27.07;24.80;101115.84;10399674;28;20109;-64
2022/07/17 10:48:25;;;;;;;2.90;0.70;;;;;;;27.36;24.43;101115.63;10399205;28;20167;-63
2022/07/17 10:53:31;;;;;;;1.20;0.20;;;;;;;27.77;22.38;101112.50;10397275;28;20045;-63
2022/07/17 10:58:41;;;;;;;2.05;0.30;;;;;;;28.42;21.35;101106.09;10394941;28;20080;-64
2022/07/17 11:03:46;;;;;;;0.80;0.30;;;;;;;28.91;21.51;101104.47;10397628;28;20052;-64
2022/07/17 11:08:52;;;;;;;1.52;0.55;;;;;;;29.17;21.03;101094.31;10397505;28;20103;-64
2022/07/17 11:13:54;;;;;;;1.15;0.25;;;;;;;28.96;21.11;101086.50;10394031;28;20053;-65
2022/07/17 11:18:57;;;;;;;3.38;0.40;;;;;;;28.86;22.31;101085.09;10398180;28;20059;-65
2022/07/17 11:23:59;;;;;;;1.73;0.60;;;;;;;29.12;21.42;101096.88;10406492;28;20087;-66
2022/07/17 11:29:01;;;;;;;8.83;1.67;;;;;;;29.45;20.41;101090.22;10400988;28;20062;-66
2022/07/17 11:34:11;;;;;;;2.33;0.63;;;;;;;29.70;18.67;101087.38;10395915;28;21357;-65
2022/07/17 11:39:18;;;;;;;3.45;0.60;;;;;;;29.57;20.10;101096.59;10395507;28;20668;-65
2022/07/17 11:44:24;;;;;;;0.75;0.40;;;;;;;29.41;19.39;101097.22;10377813;28;20109;-66
2022/07/17 11:49:27;;;;;;;2.08;0.40;;;;;;;29.67;20.40;101073.31;10390686;28;20533;-66
2022/07/17 11:54:29;;;;;;;1.98;0.50;;;;;;;29.52;20.55;101080.00;10393917;28;20788;-64
2022/07/17 11:59:32;;;;;;;;;;;;;;;29.82;20.49;101075.66;10394787;28;20079;-65
2022/07/17 12:04:34;;;;;;;2.22;0.60;;;;;;;29.96;20.40;101077.16;10398978;28;21121;-64
2022/07/17 12:09:35;;;;;;;1.83;0.43;;;;;;;30.08;19.53;101067.03;10394773;28;20135;-64
2022/07/17 12:14:46;;;;;;;2.60;0.40;;;;;;;29.81;18.31;101052.88;10394970;28;20048;-64
2022/07/17 12:19:48;;;;;;;6.22;0.43;;;;;;;29.91;17.97;101055.88;10395032;28;20494;-64
2022/07/17 12:24:49;;;;;;;4.45;0.55;;;;;;;29.92;17.94;101052.09;10396611;28;20155;-64
2022/07/17 12:29:51;;;;;;;1.20;0.28;;;;;;;29.95;17.97;101057.09;10405818;28;20048;-65
2022/07/17 12:34:53;;;;;;;5.20;0.30;;;;;;;29.76;17.15;101044.47;10398658;28;20734;-65
2022/07/17 12:40:01;;;;;;;0.70;0.20;;;;;;;29.62;17.25;101041.91;10395411;28;20037;-65
2022/07/17 12:45:04;;;;;;;0.88;0.10;;;;;;;29.47;16.95;101043.38;10397866;28;20071;-65
2022/07/17 12:50:07;;;;;;;6.43;0.73;;;;;;;29.52;18.20;101032.56;10398444;28;20749;-64
2022/07/17 12:55:11;;;;;;;2.97;0.30;;;;;;;29.62;17.84;101030.94;10397055;28;20683;-64
2022/07/17 13:00:14;;;;;;;2.10;0.40;;;;;;;29.79;18.46;101025.63;10397718;28;20060;-65
2022/07/17 13:05:16;;;;;;;1.27;0.30;;;;;;;29.60;17.53;101024.81;10393819;28;20052;-64
2022/07/17 13:10:17;;;;;;;5.60;0.73;;;;;;;29.36;17.47;101017.56;10401401;28;20060;-66
2022/07/17 13:15:18;;;;;;;1.52;0.10;;;;;;;29.33;18.46;101012.53;10401811;28;20056;-64
2022/07/17 13:20:29;;;;;;;11.60;2.38;;;;;;;29.53;17.30;101015.88;10399878;28;20064;-65
2022/07/17 13:25:31;;;;;;;1.02;0.40;;;;;;;29.51;17.22;101011.69;10405223;28;20048;-67
2022/07/17 13:30:34;;;;;;;2.33;0.35;;;;;;;29.31;18.13;100995.50;10403322;28;20056;-65
2022/07/17 13:35:36;;;;;;;0.60;0.22;;;;;;;29.35;16.74;100997.53;10401541;28;20135;-64
2022/07/17 13:40:37;;;;;;;;;;;;;;;29.14;17.21;100987.00;10400807;28;20245;-65
2022/07/17 13:45:39;;;;;;;1.77;0.93;;;;;;;29.11;17.82;100985.59;10405327;28;20011;-64
2022/07/17 13:50:42;;;;;;;1.92;0.25;;;;;;;29.09;17.94;100990.44;10408550;28;20848;-69
2022/07/17 13:55:43;;;;;;;1.48;0.60;;;;;;;29.08;18.32;100986.03;10408357;28;20143;-65
2022/07/17 14:00:52;;;;;;;2.58;0.57;;;;;;;29.02;17.80;100975.97;10398332;28;20053;-65
2022/07/17 14:05:53;;;;;;;2.35;0.68;;;;;;;28.91;17.80;100986.66;10398756;28;20052;-65
2022/07/17 14:10:55;;;;;;;0.93;0.50;;;;;;;28.95;18.26;100980.72;10387649;28;20147;-65
2022/07/17 14:15:57;;;;;;;1.20;0.20;;;;;;;28.86;17.14;100959.09;10394881;28;20175;-65
2022/07/17 14:20:58;;;;;;;1.95;0.75;;;;;;;28.79;16.52;100969.28;10399114;28;20061;-65
2022/07/17 14:26:00;;;;;;;1.20;0.30;;;;;;;28.73;17.29;100956.50;10395208;28;20130;-65
2022/07/17 14:31:01;;;;;;;1.37;0.43;;;;;;;28.67;17.46;100957.41;10399474;28;20700;-66
2022/07/17 14:36:03;;;;;;;2.93;0.30;;;;;;;28.55;17.34;100949.91;10396584;28;20053;-66
2022/07/17 14:41:05;;;;;;;2.25;0.40;;;;;;;28.59;18.25;100954.94;10398138;28;20083;-65
2022/07/17 14:46:07;;;;;;;2.75;0.40;;;;;;;28.60;17.61;100945.66;10396445;28;20130;-64
2022/07/17 14:51:09;;;;;;;1.60;0.50;;;;;;;28.51;18.67;100943.22;10401707;28;20048;-64
2022/07/17 14:56:10;;;;;;;1.58;0.28;;;;;;;28.46;17.95;100939.47;10399113;28;20060;-65
2022/07/17 15:01:12;;;;;;;1.57;0.50;;;;;;;28.29;17.31;100948.25;10402147;28;20127;-65
2022/07/17 15:06:13;;;;;;;2.27;0.50;;;;;;;28.12;17.46;100942.50;10400781;28;20460;-65
2022/07/17 15:11:15;;;;;;;1.38;0.32;;;;;;;28.12;18.44;100931.56;10400794;28;20500;-65
2022/07/17 15:16:16;;;;;;;7.55;0.70;;;;;;;28.11;17.64;100924.41;10397201;28;20056;-66
2022/07/17 15:21:19;;;;;;;2.95;1.35;;;;;;;28.10;18.55;100933.66;10402858;28;20060;-65
2022/07/17 15:26:41;;;;;;;1.13;0.13;;;;;;;28.08;19.29;100933.06;10401009;28;20106;-66
2022/07/17 15:31:48;;;;;;;1.35;0.30;;;;;;;28.05;19.50;100917.09;10399011;28;20045;-65
2022/07/17 15:36:49;;;;;;;2.08;0.60;;;;;;;28.03;19.06;100909.13;10400958;28;20178;-64
2022/07/17 15:41:51;;;;;;;2.72;0.90;;;;;;;28.08;19.74;100913.91;10402943;28;20899;-65
2022/07/17 15:46:53;;;;;;;3.15;0.98;;;;;;;28.04;19.70;100905.31;10399242;28;20064;-65
2022/07/17 15:52:02;;;;;;;1.47;0.67;;;;;;;28.06;20.01;100913.31;10353576;28;20134;-65
2022/07/17 15:57:20;;;;;;;2.00;0.30;;;;;;;28.00;20.07;100893.16;10337149;28;20159;-66
2022/07/17 16:02:24;;;;;;;0.68;0.38;;;;;;;27.97;19.59;100895.47;10402253;28;20049;-66
2022/07/17 16:07:25;;;;;;;1.85;0.32;;;;;;;27.94;20.08;100884.94;10414507;28;20045;-66
2022/07/17 16:12:30;;;;;;;1.98;0.40;;;;;;;27.93;19.92;100886.03;10408242;28;20044;-65
2022/07/17 16:17:31;;;;;;;2.22;0.30;;;;;;;27.86;19.88;100875.13;10405355;28;20556;-66
2022/07/17 16:22:33;;;;;;;6.67;1.57;;;;;;;27.83;20.76;100872.84;10407829;22;20077;-65
2022/07/17 16:27:35;;;;;;;1.50;0.30;;;;;;;27.85;20.71;100870.75;10404865;28;20139;-64
2022/07/17 16:32:41;;;;;;;2.05;0.57;;;;;;;27.86;20.92;100876.00;10399015;28;20051;-63
2022/07/17 16:37:43;;;;;;;1.33;0.77;;;;;;;27.85;20.74;100868.84;10382465;28;20485;-63
2022/07/17 16:42:44;;;;;;;2.33;0.68;;;;;;;27.83;21.02;100859.16;10383401;28;20075;-65
2022/07/17 16:47:46;;;;;;;2.92;0.52;;;;;;;27.81;20.39;100839.41;10385444;28;20269;-64
2022/07/17 16:52:47;;;;;;;2.72;0.40;;;;;;;27.77;20.41;100844.47;10398323;28;20053;-65
2022/07/17 16:57:48;;;;;;;2.55;0.40;;;;;;;27.75;20.04;100854.00;10400732;28;20106;-65
2022/07/17 17:02:50;;;;;;;2.58;0.65;;;;;;;27.78;20.28;100845.34;10404205;28;20107;-68
2022/07/17 17:07:51;;;;;;;1.08;0.20;;;;;;;27.65;20.72;100835.34;10406132;28;23301;-64
2022/07/17 17:12:54;;;;;;;1.65;0.35;;;;;;;27.56;20.87;100840.22;10388628;28;20055;-66
2022/07/17 17:17:56;;;;;;;2.57;0.63;;;;;;;27.53;21.23;100843.41;10391443;28;20061;-64
2022/07/17 17:22:58;;;;;;;2.17;0.57;;;;;;;27.48;21.36;100837.78;10392368;28;20139;-65
2022/07/17 17:27:59;;;;;;;1.77;0.52;;;;;;;27.42;21.71;100834.03;10393726;28;20397;-66
2022/07/17 17:33:01;;;;;;;0.82;0.20;;;;;;;27.42;21.65;100842.25;10392450;28;20044;-66
2022/07/17 17:38:02;;;;;;;2.50;0.77;;;;;;;27.38;21.34;100834.69;10394918;28;20103;-64
2022/07/17 17:43:04;;;;;;;1.92;0.60;;;;;;;27.36;21.36;100832.19;10394291;28;20682;-65
2022/07/17 17:48:06;;;;;;;0.68;0.20;;;;;;;27.26;21.63;100831.81;10390954;28;20158;-66
2022/07/17 17:53:07;;;;;;;2.58;0.57;;;;;;;27.18;22.01;100835.63;10390850;28;20049;-63
2022/07/17 17:58:09;;;;;;;2.85;0.50;;;;;;;27.08;21.45;100830.66;10392916;28;20636;-64
2022/07/17 18:03:10;;;;;;;1.58;0.30;;;;;;;27.05;21.49;100836.53;10390870;28;20049;-66
2022/07/17 18:08:12;;;;;;;1.93;0.43;;;;;;;26.93;21.79;100833.69;10392310;28;20056;-65
2022/07/17 18:13:14;;;;;;;2.60;0.30;;;;;;;26.87;21.95;100844.63;10391734;28;20538;-67
2022/07/17 18:18:17;;;;;;;3.15;0.45;;;;;;;26.77;22.14;100845.94;10388140;28;21064;-66
2022/07/17 18:23:18;;;;;;;1.77;0.52;;;;;;;26.69;22.02;100842.59;10387386;28;20113;-66
2022/07/17 18:28:20;;;;;;;0.88;0.40;;;;;;;26.56;22.59;100832.56;10397094;28;21668;-65
2022/07/17 18:33:21;;;;;;;1.63;0.30;;;;;;;26.45;22.83;100834.03;10397378;28;20053;-68
2022/07/17 18:38:23;;;;;;;1.38;0.40;;;;;;;26.38;22.55;100836.78;10399203;28;20498;-62
2022/07/17 18:43:24;;;;;;;2.45;0.75;;;;;;;26.30;22.22;100845.19;10392383;28;20086;-65
2022/07/17 18:48:26;;;;;;;2.25;0.50;;;;;;;26.20;22.02;100847.56;10394862;28;20087;-65
2022/07/17 18:53:27;;;;;;;2.28;0.30;;;;;;;26.13;22.65;100846.72;10395766;28;20044;-65
2022/07/17 18:58:29;;;;;;;1.10;0.47;;;;;;;26.02;22.27;100854.50;10395627;28;20547;-64
2022/07/17 19:03:30;;;;;;;2.80;0.45;;;;;;;25.93;22.68;100851.09;10393084;28;20700;-67
2022/07/17 19:08:32;;;;;;;4.43;0.68;;;;;;;25.81;23.06;100846.50;10398597;28;20629;-64
2022/07/17 19:13:33;;;;;;;1.25;0.30;;;;;;;25.76;22.85;100850.69;10398820;28;20045;-64
2022/07/17 19:18:35;;;;;;;2.05;0.40;;;;;;;25.67;23.62;100868.31;10394424;28;20057;-63
2022/07/17 19:23:36;;;;;;;2.03;0.43;;;;;;;25.57;23.81;100862.44;10395116;28;20108;-64
2022/07/17 19:28:38;;;;;;;1.77;0.85;;;;;;;25.49;23.88;100866.19;10381400;28;20055;-64
2022/07/17 19:33:41;;;;;;;2.58;0.63;;;;;;;25.41;24.67;100874.56;10394243;28;20131;-66
2022/07/17 19:38:43;;;;;;;1.92;0.45;;;;;;;25.33;24.97;100872.88;10393502;28;20091;-65
2022/07/17 19:43:45;;;;;;;1.95;0.47;;;;;;;25.26;25.31;100874.69;10389637;28;20048;-64
2022/07/17 19:48:48;;;;;;;1.65;0.93;;;;;;;25.19;25.24;100876.56;10393661;28;20068;-67
2022/07/17 19:53:50;;;;;;;2.97;0.60;;;;;;;25.12;25.25;100883.88;10395519;28;20052;-65
2022/07/17 19:58:52;;;;;;;2.05;0.88;;;;;;;25.08;25.33;100879.88;10390817;28;20056;-66
2022/07/17 20:03:53;;;;;;;3.28;1.20;;;;;;;25.01;25.91;100891.59;10394880;28;20198;-64
2022/07/17 20:08:55;;;;;;;6.15;0.80;;;;;;;24.96;26.07;100894.06;10377552;28;20632;-65
2022/07/17 20:13:56;;;;;;;4.75;0.63;;;;;;;24.88;25.94;100897.81;10393252;28;20053;-66
2022/07/17 20:18:57;;;;;;;2.70;0.85;;;;;;;24.82;26.29;100911.41;10388795;28;20424;-65
2022/07/17 20:23:59;;;;;;;2.45;1.00;;;;;;;24.76;26.83;100912.22;10387295;28;20064;-65
2022/07/17 20:29:02;;;;;;;2.97;1.02;;;;;;;24.72;27.09;100908.22;10393890;28;20193;-67
2022/07/17 20:34:04;;;;;;;5.50;2.65;;;;;;;24.64;26.94;100910.06;10388121;28;20155;-67
2022/07/17 20:39:05;;;;;;;4.87;2.13;;;;;;;24.58;27.20;100910.84;10393896;28;20048;-55
2022/07/17 20:44:08;;;;;;;4.45;1.58;;;;;;;24.54;27.94;100901.38;10390926;28;21902;-55
2022/07/17 20:49:10;;;;;;;4.13;1.75;;;;;;;24.50;29.11;100892.78;10389845;28;20056;-54
2022/07/17 20:54:11;;;;;;;3.78;2.03;;;;;;;24.43;30.73;100891.88;10396282;28;20048;-57
2022/07/17 20:59:13;;;;;;;3.50;1.60;;;;;;;24.33;29.68;100889.50;10393678;28;20543;-53
2022/07/17 21:04:14;;;;;;;2.85;1.20;;;;;;;24.31;29.26;100904.38;10256908;28;20049;-54
2022/07/17 21:09:16;;;;;;;1.92;0.80;;;;;;;24.26;29.70;100915.84;10401398;28;20058;-54
2022/07/17 21:14:17;;;;;;;4.18;1.17;;;;;;;24.18;29.75;100913.25;10428568;28;20052;-54
2022/07/17 21:19:20;;;;;;;2.50;1.13;;;;;;;24.09;29.27;100919.88;10420975;28;20126;-54
2022/07/17 21:24:21;;;;;;;3.67;1.17;;;;;;;23.97;28.86;100923.13;10427639;28;20291;-55
2022/07/17 21:29:23;;;;;;;1.60;0.88;;;;;;;23.85;29.68;100918.38;10416576;28;20131;-54
2022/07/17 21:34:24;;;;;;;3.15;1.40;;;;;;;23.73;30.40;100927.06;10417827;28;20132;-55
2022/07/17 21:39:26;;;;;;;3.78;1.23;;;;;;;23.65;30.89;100925.31;10420423;28;20099;-55
2022/07/17 21:44:27;;;;;;;6.28;1.38;;;;;;;23.59;31.52;100926.09;10421384;28;20693;-54
2022/07/17 21:49:28;;;;;;;4.72;1.08;;;;;;;23.52;31.38;100930.59;10414896;28;20143;-56
2022/07/17 21:54:30;;;;;;;4.13;1.20;;;;;;;23.46;31.31;100926.81;10413796;28;20158;-54
2022/07/17 21:59:31;;;;;;;1.45;0.88;;;;;;;23.40;31.53;100926.72;10422883;28;20072;-55
2022/07/17 22:04:33;;;;;;;3.58;1.17;;;;;;;23.35;31.32;100924.56;10415502;28;20055;-54
2022/07/17 22:09:35;;;;;;;3.50;1.30;;;;;;;23.28;31.06;100919.06;10420457;28;20132;-54
2022/07/17 22:14:36;;;;;;;3.95;1.58;;;;;;;23.25;31.27;100914.00;10418008;28;20068;-54
2022/07/17 22:19:38;;;;;;;3.15;1.10;;;;;;;23.20;31.27;100924.59;10405183;28;20364;-54
2022/07/17 22:24:40;;;;;;;2.25;1.40;;;;;;;23.11;31.52;100917.59;10411162;28;20134;-53
2022/07/17 22:29:42;;;;;;;7.53;1.30;;;;;;;23.08;31.65;100924.22;10416539;28;20145;-54
2022/07/17 22:34:43;;;;;;;4.78;1.17;;;;;;;23.03;31.82;100925.81;10416955;28;20139;-54
2022/07/17 22:39:45;;;;;;;3.55;1.25;;;;;;;22.98;31.86;100914.69;10415115;28;20084;-53
2022/07/17 22:44:46;;;;;;;3.95;1.20;;;;;;;22.91;32.13;100922.75;10419340;28;20854;-54
2022/07/17 22:49:48;;;;;;;8.75;2.58;;;;;;;22.86;32.01;100920.59;10405461;28;20621;-53
2022/07/17 22:54:49;;;;;;;4.20;2.03;;;;;;;22.80;32.13;100924.06;10416951;28;20132;-54
2022/07/17 22:59:51;;;;;;;3.70;1.60;;;;;;;22.74;32.39;100927.53;10415298;28;20072;-53
2022/07/17 23:04:52;;;;;;;3.90;1.42;;;;;;;22.66;32.34;100924.91;10419548;28;20124;-54
2022/07/17 23:09:54;;;;;;;2.28;1.35;;;;;;;22.65;33.10;100928.66;10417506;28;20048;-53